createdAt,value
2023-03-28T00:00:20.742Z,29.79
2023-03-28T00:01:20.748Z,29.71
2023-03-28T00:02:20.761Z,29.70
2023-03-28T00:03:20.790Z,29.79
2023-03-28T00:04:20.820Z,29.76
2023-03-28T00:05:20.763Z,29.76
2023-03-28T00:06:20.827Z,29.84
2023-03-28T00:07:20.775Z,29.79
2023-03-28T00:08:20.783Z,29.79
2023-03-28T00:09:20.796Z,29.79
2023-03-28T00:10:20.784Z,29.77
2023-03-28T00:11:20.842Z,29.81
2023-03-28T00:12:20.798Z,29.79
2023-03-28T00:13:20.791Z,29.76
2023-03-28T00:14:20.793Z,29.76
2023-03-28T00:15:20.793Z,29.79
2023-03-28T00:16:20.834Z,29.77
2023-03-28T00:17:20.825Z,29.79
2023-03-28T00:18:20.801Z,29.81
2023-03-28T00:19:20.848Z,29.76
2023-03-28T00:20:20.807Z,29.82
2023-03-28T00:21:20.807Z,29.87
2023-03-28T00:22:20.824Z,29.76
2023-03-28T00:23:20.812Z,29.77
2023-03-28T00:24:20.815Z,29.81
2023-03-28T00:25:20.826Z,29.76
2023-03-28T00:26:20.839Z,29.73
2023-03-28T00:27:20.834Z,29.85
2023-03-28T00:28:20.841Z,29.76
2023-03-28T00:29:21.175Z,29.82
2023-03-28T00:30:20.852Z,29.79
2023-03-28T00:31:20.911Z,29.75
2023-03-28T00:32:20.881Z,29.82
2023-03-28T00:33:20.883Z,29.82
2023-03-28T00:34:20.892Z,29.84
2023-03-28T00:35:20.915Z,29.79
2023-03-28T00:36:20.909Z,29.86
2023-03-28T00:37:20.918Z,29.84
2023-03-28T00:38:20.931Z,29.84
2023-03-28T00:39:20.936Z,29.81
2023-03-28T00:40:20.951Z,29.82
2023-03-28T00:41:20.950Z,29.79
2023-03-28T00:42:20.949Z,29.77
2023-03-28T00:43:20.967Z,29.77
2023-03-28T00:44:20.978Z,29.79
2023-03-28T00:45:20.997Z,29.76
2023-03-28T00:46:21.013Z,29.81
2023-03-28T00:47:20.995Z,29.76
2023-03-28T00:48:20.988Z,29.79
2023-03-28T00:49:20.985Z,29.84
2023-03-28T00:50:21.000Z,29.77
2023-03-28T00:51:21.000Z,29.81
2023-03-28T00:52:20.998Z,29.82
2023-03-28T00:53:21.017Z,29.77
2023-03-28T00:54:21.015Z,29.78
2023-03-28T00:55:21.028Z,29.79
2023-03-28T00:56:21.016Z,29.77
2023-03-28T00:57:21.030Z,29.73
2023-03-28T00:58:21.029Z,29.79
2023-03-28T00:59:21.031Z,29.81
2023-03-28T01:00:21.091Z,29.77
2023-03-28T01:01:21.096Z,29.77
2023-03-28T01:02:21.100Z,29.77
2023-03-28T01:03:21.130Z,29.79
2023-03-28T01:04:21.075Z,29.74
2023-03-28T01:05:21.098Z,29.81
2023-03-28T01:06:21.091Z,29.79
2023-03-28T01:07:21.101Z,29.79
2023-03-28T01:08:21.084Z,29.77
2023-03-28T01:09:21.121Z,29.74
2023-03-28T01:10:21.090Z,29.76
2023-03-28T01:11:21.109Z,29.81
2023-03-28T01:12:21.124Z,29.80
2023-03-28T01:13:21.192Z,29.79
2023-03-28T01:14:21.122Z,29.81
2023-03-28T01:15:21.126Z,29.77
2023-03-28T01:16:21.232Z,29.77
2023-03-28T01:17:21.140Z,29.77
2023-03-28T01:18:21.144Z,29.77
2023-03-28T01:19:21.156Z,29.71
2023-03-28T01:20:21.156Z,29.77
2023-03-28T01:21:21.177Z,29.84
2023-03-28T01:22:21.177Z,29.84
2023-03-28T01:23:21.198Z,29.76
2023-03-28T01:24:21.202Z,29.81
2023-03-28T01:25:21.195Z,29.77
2023-03-28T01:26:21.203Z,29.77
2023-03-28T01:27:21.215Z,29.77
2023-03-28T01:28:21.215Z,29.77
2023-03-28T01:29:21.216Z,29.73
2023-03-28T01:30:21.220Z,29.76
2023-03-28T01:31:21.250Z,29.79
2023-03-28T01:32:21.230Z,29.80
2023-03-28T01:33:21.242Z,29.82
2023-03-28T01:34:21.233Z,29.82
2023-03-28T01:35:21.284Z,29.79
2023-03-28T01:36:33.926Z,29.79
2023-03-28T01:37:22.195Z,29.74
2023-03-28T01:38:21.148Z,29.82
2023-03-28T01:39:21.086Z,29.71
2023-03-28T01:40:21.031Z,29.81
2023-03-28T01:41:20.979Z,29.84
2023-03-28T01:42:20.933Z,29.82
2023-03-28T01:43:20.873Z,29.77
2023-03-28T01:44:20.822Z,29.82
2023-03-28T01:45:20.779Z,29.76
2023-03-28T01:46:20.828Z,29.76
2023-03-28T01:47:20.793Z,29.74
2023-03-28T01:48:20.790Z,29.74
2023-03-28T01:49:20.828Z,29.76
2023-03-28T01:50:20.810Z,29.82
2023-03-28T01:51:20.819Z,29.74
2023-03-28T01:52:20.837Z,29.81
2023-03-28T01:53:20.837Z,29.84
2023-03-28T01:54:20.848Z,29.73
2023-03-28T01:55:20.846Z,29.74
2023-03-28T01:56:20.867Z,29.77
2023-03-28T01:57:20.902Z,29.71
2023-03-28T01:58:20.837Z,29.73
2023-03-28T01:59:20.850Z,29.77
2023-03-28T02:00:20.852Z,29.74
2023-03-28T02:01:20.920Z,29.79
2023-03-28T02:02:20.913Z,29.77
2023-03-28T02:03:20.940Z,29.73
2023-03-28T02:04:21.409Z,29.66
2023-03-28T02:05:20.871Z,29.82
2023-03-28T02:06:20.885Z,29.74
2023-03-28T02:07:20.894Z,29.79
2023-03-28T02:08:20.894Z,29.71
2023-03-28T02:09:22.223Z,29.76
2023-03-28T02:10:21.031Z,29.76
2023-03-28T02:11:21.036Z,29.76
2023-03-28T02:12:21.048Z,29.75
2023-03-28T02:13:21.061Z,29.73
2023-03-28T02:14:21.076Z,29.73
2023-03-28T02:15:21.079Z,29.70
2023-03-28T02:16:21.157Z,29.79
2023-03-28T02:17:21.118Z,29.74
2023-03-28T02:18:21.092Z,29.77
2023-03-28T02:19:21.615Z,29.76
2023-03-28T02:20:21.138Z,29.69
2023-03-28T02:21:21.117Z,29.76
2023-03-28T02:22:21.125Z,29.74
2023-03-28T02:23:21.130Z,29.73
2023-03-28T02:24:21.146Z,29.68
2023-03-28T02:25:21.142Z,29.70
2023-03-28T02:26:21.155Z,29.71
2023-03-28T02:27:21.156Z,29.70
2023-03-28T02:28:21.170Z,29.69
2023-03-28T02:29:21.179Z,29.74
2023-03-28T02:30:21.185Z,29.70
2023-03-28T02:31:21.209Z,29.71
2023-03-28T02:32:21.188Z,29.73
2023-03-28T02:33:21.194Z,29.74
2023-03-28T02:34:21.193Z,29.77
2023-03-28T02:35:21.246Z,29.71
2023-03-28T02:36:21.212Z,29.75
2023-03-28T02:37:21.218Z,29.71
2023-03-28T02:38:21.232Z,29.76
2023-03-28T02:39:21.267Z,29.76
2023-03-28T02:40:21.241Z,29.71
2023-03-28T02:41:21.255Z,29.74
2023-03-28T02:42:21.248Z,29.76
2023-03-28T02:43:21.263Z,29.70
2023-03-28T02:44:21.530Z,29.66
2023-03-28T02:45:21.268Z,29.71
2023-03-28T02:46:21.286Z,29.73
2023-03-28T02:47:21.277Z,29.68
2023-03-28T02:48:21.297Z,29.73
2023-03-28T02:49:21.288Z,29.71
2023-03-28T02:50:21.300Z,29.73
2023-03-28T02:51:21.296Z,29.74
2023-03-28T02:52:21.301Z,29.69
2023-03-28T02:53:21.303Z,29.74
2023-03-28T02:54:21.328Z,29.70
2023-03-28T02:55:21.326Z,29.68
2023-03-28T02:56:21.331Z,29.76
2023-03-28T02:57:21.336Z,29.63
2023-03-28T02:58:21.343Z,29.71
2023-03-28T02:59:21.344Z,29.72
2023-03-28T03:00:21.339Z,29.71
2023-03-28T03:01:21.387Z,29.74
2023-03-28T03:02:21.353Z,29.77
2023-03-28T03:03:21.379Z,29.79
2023-03-28T03:04:21.361Z,29.76
2023-03-28T03:05:21.370Z,29.75
2023-03-28T03:06:21.449Z,29.77
2023-03-28T03:07:21.374Z,29.74
2023-03-28T03:08:21.393Z,29.68
2023-03-28T03:09:21.377Z,29.63
2023-03-28T03:10:21.399Z,29.71
2023-03-28T03:11:21.430Z,29.65
2023-03-28T03:12:21.399Z,29.71
2023-03-28T03:13:21.430Z,29.68
2023-03-28T03:14:21.424Z,29.59
2023-03-28T03:15:21.457Z,29.66
2023-03-28T03:16:21.532Z,29.73
2023-03-28T03:17:21.434Z,29.66
2023-03-28T03:18:21.455Z,29.74
2023-03-28T03:19:21.451Z,29.77
2023-03-28T03:20:21.473Z,29.74
2023-03-28T03:21:21.520Z,29.75
2023-03-28T03:22:21.490Z,29.79
2023-03-28T03:23:21.501Z,29.76
2023-03-28T03:24:21.499Z,29.77
2023-03-28T03:25:21.513Z,29.83
2023-03-28T03:26:21.531Z,29.77
2023-03-28T03:27:21.529Z,29.79
2023-03-28T03:28:21.512Z,29.86
2023-03-28T03:29:21.528Z,29.82
2023-03-28T03:30:21.530Z,29.85
2023-03-28T03:31:21.613Z,29.83
2023-03-28T03:32:21.561Z,29.80
2023-03-28T03:33:21.544Z,29.86
2023-03-28T03:34:21.553Z,29.86
2023-03-28T03:35:21.579Z,29.85
2023-03-28T03:36:21.558Z,29.90
2023-03-28T03:37:21.572Z,29.86
2023-03-28T03:38:21.578Z,29.93
2023-03-28T03:39:21.585Z,29.90
2023-03-28T03:40:21.599Z,29.83
2023-03-28T03:41:21.609Z,29.85
2023-03-28T03:42:21.616Z,29.80
2023-03-28T03:43:21.632Z,29.91
2023-03-28T03:44:21.641Z,29.85
2023-03-28T03:45:21.638Z,29.88
2023-03-28T03:46:21.681Z,29.87
2023-03-28T03:47:21.659Z,29.88
2023-03-28T03:48:21.666Z,29.88
2023-03-28T03:49:21.679Z,29.93
2023-03-28T03:50:21.673Z,29.86
2023-03-28T03:51:21.674Z,29.88
2023-03-28T03:52:21.692Z,29.88
2023-03-28T03:53:21.700Z,29.87
2023-03-28T03:54:21.707Z,29.86
2023-03-28T03:55:21.724Z,29.86
2023-03-28T03:56:21.707Z,29.90
2023-03-28T03:57:21.780Z,29.93
2023-03-28T03:58:21.720Z,29.94
2023-03-28T03:59:21.749Z,29.90
2023-03-28T04:00:21.736Z,29.91
2023-03-28T04:01:21.747Z,29.88
2023-03-28T04:02:21.814Z,29.93
2023-03-28T04:03:24.326Z,29.93
2023-03-28T04:04:21.771Z,29.90
2023-03-28T04:05:21.667Z,29.87
2023-03-28T04:06:21.606Z,29.87
2023-03-28T04:07:21.534Z,29.93
2023-03-28T04:08:21.491Z,29.93
2023-03-28T04:09:21.418Z,29.86
2023-03-28T04:10:21.366Z,29.83
2023-03-28T04:11:21.303Z,29.93
2023-03-28T04:12:21.250Z,29.88
2023-03-28T04:13:21.201Z,29.91
2023-03-28T04:14:21.149Z,29.91
2023-03-28T04:15:21.094Z,29.88
2023-03-28T04:16:21.066Z,29.85
2023-03-28T04:17:20.985Z,29.88
2023-03-28T04:18:20.938Z,29.90
2023-03-28T04:19:21.180Z,29.91
2023-03-28T04:20:20.812Z,29.88
2023-03-28T04:21:20.756Z,29.85
2023-03-28T04:22:20.690Z,29.94
2023-03-28T04:23:20.663Z,29.93
2023-03-28T04:24:20.590Z,29.86
2023-03-28T04:25:20.531Z,29.91
2023-03-28T04:26:20.501Z,29.91
2023-03-28T04:27:20.416Z,29.85
2023-03-28T04:28:20.385Z,29.83
2023-03-28T04:29:20.377Z,29.93
2023-03-28T04:30:20.389Z,29.85
2023-03-28T04:31:20.423Z,29.86
2023-03-28T04:32:20.434Z,29.88
2023-03-28T04:33:20.412Z,29.91
2023-03-28T04:34:20.421Z,29.85
2023-03-28T04:35:20.464Z,29.90
2023-03-28T04:36:20.436Z,29.87
2023-03-28T04:37:20.447Z,29.82
2023-03-28T04:38:21.484Z,29.88
2023-03-28T04:39:20.545Z,29.88
2023-03-28T04:40:20.468Z,29.85
2023-03-28T04:41:20.486Z,29.91
2023-03-28T04:42:20.486Z,29.86
2023-03-28T04:43:20.487Z,29.88
2023-03-28T04:44:20.489Z,29.90
2023-03-28T04:45:20.504Z,29.85
2023-03-28T04:46:20.561Z,29.93
2023-03-28T04:47:20.499Z,29.89
2023-03-28T04:48:20.514Z,29.90
2023-03-28T04:49:20.526Z,29.90
2023-03-28T04:50:20.531Z,29.91
2023-03-28T04:51:20.548Z,29.91
2023-03-28T04:52:20.573Z,29.91
2023-03-28T04:53:20.575Z,29.94
2023-03-28T04:54:20.615Z,29.90
2023-03-28T04:55:20.590Z,29.86
2023-03-28T04:56:20.609Z,29.93
2023-03-28T04:57:20.699Z,29.88
2023-03-28T04:58:20.639Z,29.91
2023-03-28T04:59:20.636Z,29.88
2023-03-28T05:00:20.646Z,29.94
2023-03-28T05:01:20.691Z,30.08
2023-03-28T05:02:20.724Z,30.25
2023-03-28T05:03:20.728Z,30.05
2023-03-28T05:04:20.698Z,30.00
2023-03-28T05:05:20.708Z,29.97
2023-03-28T05:06:20.735Z,30.02
2023-03-28T05:07:20.745Z,30.02
2023-03-28T05:08:20.750Z,30.03
2023-03-28T05:09:20.763Z,30.05
2023-03-28T05:10:20.775Z,30.19
2023-03-28T05:11:20.765Z,30.47
2023-03-28T05:12:20.756Z,30.41
2023-03-28T05:13:20.768Z,30.76
2023-03-28T05:14:20.750Z,31.21
2023-03-28T05:15:22.470Z,31.41
2023-03-28T05:16:20.748Z,31.36
2023-03-28T05:17:20.628Z,30.94
2023-03-28T05:18:20.582Z,31.41
2023-03-28T05:19:20.533Z,32.10
2023-03-28T05:20:20.484Z,32.78
2023-03-28T05:21:21.435Z,32.68
2023-03-28T05:22:20.390Z,32.56
2023-03-28T05:23:20.346Z,32.09
2023-03-28T05:24:20.297Z,32.34
2023-03-28T05:25:21.202Z,32.57
2023-03-28T05:26:20.248Z,33.24
2023-03-28T05:27:20.171Z,33.33
2023-03-28T05:28:20.127Z,33.99
2023-03-28T05:29:20.077Z,33.71
2023-03-28T05:30:21.739Z,33.54
2023-03-28T05:31:21.043Z,33.56
2023-03-28T05:32:23.378Z,33.29
2023-03-28T05:33:19.947Z,31.84
2023-03-28T05:34:19.898Z,29.70
2023-03-28T05:35:19.935Z,28.28
2023-03-28T05:36:19.870Z,28.64
2023-03-28T05:37:19.801Z,29.74
2023-03-28T05:38:20.706Z,30.03
2023-03-28T05:39:19.724Z,30.50
2023-03-28T05:40:19.690Z,30.04
2023-03-28T05:41:19.645Z,30.56
2023-03-28T05:42:19.605Z,30.74
2023-03-28T05:43:19.574Z,30.72
2023-03-28T05:44:19.561Z,30.68
2023-03-28T05:45:19.889Z,30.65
2023-03-28T05:46:19.434Z,30.70
2023-03-28T05:47:19.376Z,30.66
2023-03-28T05:48:19.391Z,30.70
2023-03-28T05:49:19.289Z,30.63
2023-03-28T05:50:19.221Z,30.63
2023-03-28T05:51:19.289Z,30.70
2023-03-28T05:52:19.163Z,30.79
2023-03-28T05:53:19.107Z,30.79
2023-03-28T05:54:19.019Z,30.83
2023-03-28T05:55:18.984Z,30.79
2023-03-28T05:56:20.737Z,30.81
2023-03-28T05:57:19.039Z,31.20
2023-03-28T05:58:18.791Z,30.78
2023-03-28T05:59:18.729Z,30.55
2023-03-28T06:00:18.662Z,29.42
2023-03-28T06:01:18.630Z,28.47
2023-03-28T06:02:18.607Z,29.89
2023-03-28T06:03:18.574Z,29.61
2023-03-28T06:04:18.533Z,29.65
2023-03-28T06:05:18.439Z,29.61
2023-03-28T06:06:18.397Z,30.42
2023-03-28T06:08:18.374Z,30.84
2023-03-28T06:09:18.383Z,30.84
2023-03-28T06:10:18.399Z,30.93
2023-03-28T06:11:18.389Z,30.95
2023-03-28T06:12:18.399Z,30.95
2023-03-28T06:13:18.426Z,30.90
2023-03-28T06:15:18.440Z,30.87
2023-03-28T06:16:18.480Z,30.82
2023-03-28T06:17:19.451Z,30.89
2023-03-28T06:18:18.346Z,30.84
2023-03-28T06:19:18.928Z,30.82
2023-03-28T06:20:18.257Z,30.84
2023-03-28T06:21:18.292Z,31.16
2023-03-28T06:22:19.998Z,31.38
2023-03-28T06:23:18.102Z,31.55
2023-03-28T06:24:18.756Z,32.03
2023-03-28T06:25:18.032Z,32.26
2023-03-28T06:26:17.939Z,32.19
2023-03-28T06:27:17.902Z,32.39
2023-03-28T06:28:17.849Z,32.75
2023-03-28T06:29:18.089Z,32.42
2023-03-28T06:30:18.122Z,31.26
2023-03-28T06:31:18.132Z,30.63
2023-03-28T06:32:17.830Z,31.04
2023-03-28T06:33:18.196Z,30.58
2023-03-28T06:34:17.845Z,30.26
2023-03-28T06:35:18.142Z,30.29
2023-03-28T06:36:17.821Z,30.66
2023-03-28T06:37:17.848Z,30.48
2023-03-28T06:38:18.184Z,30.85
2023-03-28T06:39:17.835Z,30.48
2023-03-28T06:40:18.735Z,30.62
2023-03-28T06:41:17.790Z,30.46
2023-03-28T06:42:17.806Z,30.53
2023-03-28T06:43:18.180Z,30.54
2023-03-28T06:44:17.837Z,30.59
2023-03-28T06:45:18.933Z,30.57
2023-03-28T06:46:18.066Z,30.48
2023-03-28T06:47:17.845Z,30.53
2023-03-28T06:48:18.064Z,30.60
2023-03-28T06:49:17.901Z,30.60
2023-03-28T06:50:17.892Z,30.54
2023-03-28T06:51:18.071Z,30.73
2023-03-28T06:52:17.897Z,30.70
2023-03-28T06:53:17.900Z,30.70
2023-03-28T06:54:17.917Z,30.71
2023-03-28T06:55:17.967Z,30.67
2023-03-28T06:56:17.935Z,30.71
2023-03-28T06:57:17.988Z,30.87
2023-03-28T06:58:18.095Z,30.71
2023-03-28T06:59:17.990Z,30.67
2023-03-28T07:00:17.965Z,30.76
2023-03-28T07:01:18.010Z,30.59
2023-03-28T07:02:18.036Z,30.65
2023-03-28T07:03:18.072Z,30.76
2023-03-28T07:04:18.010Z,30.83
2023-03-28T07:05:18.010Z,31.17
2023-03-28T07:06:18.231Z,31.88
2023-03-28T07:07:18.041Z,30.95
2023-03-28T07:08:18.067Z,30.87
2023-03-28T07:09:18.059Z,30.92
2023-03-28T07:10:18.068Z,30.96
2023-03-28T07:11:18.194Z,30.90
2023-03-28T07:12:18.424Z,31.31
2023-03-28T07:13:18.065Z,31.25
2023-03-28T07:14:18.461Z,31.65
2023-03-28T07:15:19.521Z,31.99
2023-03-28T07:16:18.181Z,32.24
2023-03-28T07:17:18.017Z,32.70
2023-03-28T07:18:17.973Z,32.62
2023-03-28T07:19:17.935Z,33.06
2023-03-28T07:20:17.900Z,32.33
2023-03-28T07:21:17.858Z,32.04
2023-03-28T07:22:17.822Z,32.10
2023-03-28T07:23:17.864Z,32.56
2023-03-28T07:24:17.859Z,31.83
2023-03-28T07:25:17.801Z,31.84
2023-03-28T07:26:17.844Z,32.23
2023-03-28T07:27:17.856Z,31.79
2023-03-28T07:28:17.904Z,31.38
2023-03-28T07:29:17.839Z,31.53
2023-03-28T07:30:17.988Z,31.43
2023-03-28T07:31:17.877Z,31.60
2023-03-28T07:32:17.896Z,31.66
2023-03-28T07:33:23.428Z,31.72
2023-03-28T07:34:18.825Z,31.63
2023-03-28T07:35:17.902Z,31.66
2023-03-28T07:36:17.679Z,31.10
2023-03-28T07:37:17.685Z,30.91
2023-03-28T07:38:17.672Z,31.46
2023-03-28T07:39:17.490Z,31.04
2023-03-28T07:40:17.432Z,31.50
2023-03-28T07:41:17.680Z,31.76
2023-03-28T07:42:17.376Z,31.93
2023-03-28T07:43:17.377Z,31.82
2023-03-28T07:44:17.375Z,31.76
2023-03-28T07:45:17.381Z,32.02
2023-03-28T07:46:18.243Z,31.96
2023-03-28T07:47:17.370Z,32.09
2023-03-28T07:48:17.365Z,31.77
2023-03-28T07:49:17.366Z,31.71
2023-03-28T07:50:17.465Z,31.71
2023-03-28T07:51:17.339Z,31.87
2023-03-28T07:52:17.335Z,31.88
2023-03-28T07:53:17.341Z,32.05
2023-03-28T07:54:17.349Z,32.25
2023-03-28T07:55:17.367Z,32.40
2023-03-28T07:56:17.335Z,32.43
2023-03-28T07:57:17.400Z,32.20
2023-03-28T07:58:17.321Z,32.03
2023-03-28T07:59:17.357Z,31.95
2023-03-28T08:00:17.363Z,32.07
2023-03-28T08:01:17.425Z,32.38
2023-03-28T08:02:17.333Z,32.37
2023-03-28T08:03:17.404Z,32.35
2023-03-28T08:04:17.331Z,32.20
2023-03-28T08:05:17.375Z,32.50
2023-03-28T08:06:31.726Z,32.58
2023-03-28T08:07:18.294Z,32.62
2023-03-28T08:08:17.220Z,32.67
2023-03-28T08:09:17.173Z,32.78
2023-03-28T08:10:17.148Z,32.91
2023-03-28T08:11:17.074Z,35.32
2023-03-28T08:12:17.016Z,34.07
2023-03-28T08:13:17.026Z,34.86
2023-03-28T08:14:16.920Z,34.69
2023-03-28T08:15:17.414Z,34.67
2023-03-28T08:16:16.898Z,34.54
2023-03-28T08:17:16.766Z,34.58
2023-03-28T08:18:16.690Z,34.26
2023-03-28T08:19:16.640Z,33.08
2023-03-28T08:20:16.572Z,32.37
2023-03-28T08:21:16.506Z,34.81
2023-03-28T08:22:16.442Z,34.91
2023-03-28T08:23:17.299Z,33.71
2023-03-28T08:24:25.477Z,34.05
2023-03-28T08:25:17.271Z,33.30
2023-03-28T08:26:16.185Z,33.66
2023-03-28T08:27:16.157Z,32.69
2023-03-28T08:28:16.082Z,32.53
2023-03-28T08:29:16.019Z,33.15
2023-03-28T08:30:15.987Z,32.79
2023-03-28T08:31:15.993Z,32.51
2023-03-28T08:32:15.867Z,32.51
2023-03-28T08:34:16.711Z,31.98
2023-03-28T08:35:15.714Z,30.75
2023-03-28T08:37:16.298Z,29.58
2023-03-28T08:38:15.682Z,30.19
2023-03-28T08:39:15.671Z,28.36
2023-03-28T08:40:15.692Z,27.15
2023-03-28T08:41:15.712Z,27.69
2023-03-28T08:42:15.695Z,27.27
2023-03-28T08:43:15.689Z,27.88
2023-03-28T08:44:15.589Z,28.86
2023-03-28T08:45:15.547Z,28.89
2023-03-28T08:46:15.501Z,28.80
2023-03-28T08:47:15.418Z,28.98
2023-03-28T08:48:15.384Z,29.53
2023-03-28T08:49:15.317Z,29.43
2023-03-28T08:50:15.312Z,30.59
2023-03-28T08:51:15.212Z,29.59
2023-03-28T08:52:15.141Z,29.94
2023-03-28T08:53:15.402Z,30.48
2023-03-28T08:54:15.200Z,31.27
2023-03-28T08:55:15.413Z,31.23
2023-03-28T08:56:15.144Z,31.34
2023-03-28T08:57:15.600Z,31.24
2023-03-28T08:58:15.109Z,31.08
2023-03-28T08:59:15.125Z,31.22
2023-03-28T09:00:15.129Z,31.21
2023-03-28T09:01:15.121Z,31.18
2023-03-28T09:02:15.147Z,31.13
2023-03-28T09:03:15.170Z,31.12
2023-03-28T09:04:15.349Z,31.06
2023-03-28T09:05:23.338Z,31.01
2023-03-28T09:06:16.041Z,31.03
2023-03-28T09:07:14.979Z,30.98
2023-03-28T09:08:16.160Z,30.98
2023-03-28T09:09:14.865Z,30.89
2023-03-28T09:10:14.819Z,30.85
2023-03-28T09:11:14.739Z,30.74
2023-03-28T09:12:15.306Z,30.71
2023-03-28T09:13:14.637Z,30.61
2023-03-28T09:14:14.571Z,30.55
2023-03-28T09:15:17.441Z,30.41
2023-03-28T09:16:14.498Z,30.68
2023-03-28T09:17:14.393Z,30.98
2023-03-28T09:18:14.480Z,31.03
2023-03-28T09:19:14.413Z,28.87
2023-03-28T09:20:14.245Z,29.79
2023-03-28T09:21:14.209Z,29.23
2023-03-28T09:22:15.908Z,27.20
2023-03-28T09:23:14.098Z,26.92
2023-03-28T09:24:15.928Z,28.19
2023-03-28T09:25:13.960Z,28.19
2023-03-28T09:26:14.080Z,28.19
2023-03-28T09:27:13.851Z,28.14
2023-03-28T09:28:13.793Z,28.12
2023-03-28T09:29:13.918Z,28.08
2023-03-28T09:30:13.806Z,28.37
2023-03-28T09:31:13.838Z,28.45
2023-03-28T09:32:16.617Z,28.50
2023-03-28T09:33:14.567Z,28.90
2023-03-28T09:34:14.339Z,29.87
2023-03-28T09:35:14.086Z,30.08
2023-03-28T09:36:14.306Z,30.15
2023-03-28T09:37:13.652Z,30.12
2023-03-28T09:38:13.408Z,30.04
2023-03-28T09:39:13.583Z,30.18
2023-03-28T09:40:13.510Z,30.04
2023-03-28T09:41:13.399Z,30.11
2023-03-28T09:42:14.743Z,30.09
2023-03-28T09:43:14.090Z,30.10
2023-03-28T09:45:32.448Z,30.09
2023-03-28T09:46:32.287Z,30.10
2023-03-28T09:47:32.386Z,30.09
2023-03-28T09:48:32.361Z,30.20
2023-03-28T09:49:32.199Z,30.09
2023-03-28T09:50:32.123Z,30.10
2023-03-28T09:51:32.076Z,30.07
2023-03-28T09:52:32.034Z,30.07
2023-03-28T09:53:33.387Z,30.16
2023-03-28T09:54:31.948Z,30.12
2023-03-28T09:55:31.912Z,30.09
2023-03-28T09:56:31.857Z,30.01
2023-03-28T09:57:31.803Z,30.04
2023-03-28T09:58:31.754Z,30.07
2023-03-28T09:59:31.706Z,29.99
2023-03-28T10:00:31.660Z,29.65
2023-03-28T10:01:32.575Z,29.43
2023-03-28T10:02:31.572Z,29.46
2023-03-28T10:03:31.503Z,29.50
2023-03-28T10:04:31.462Z,29.46
2023-03-28T10:05:31.407Z,29.48
2023-03-28T10:06:31.352Z,29.70
2023-03-28T10:07:31.320Z,30.20
2023-03-28T10:08:31.267Z,29.92
2023-03-28T10:09:31.212Z,29.82
2023-03-28T10:10:31.165Z,29.58
2023-03-28T10:11:31.107Z,28.39
2023-03-28T10:12:31.079Z,29.50
2023-03-28T10:13:31.050Z,29.92
2023-03-28T10:14:31.014Z,30.02
2023-03-28T10:15:31.020Z,30.22
2023-03-28T10:16:31.123Z,30.36
2023-03-28T10:17:31.017Z,30.30
2023-03-28T10:18:30.992Z,30.09
2023-03-28T10:19:30.988Z,30.04
2023-03-28T10:20:30.983Z,30.14
2023-03-28T10:21:30.971Z,30.66
2023-03-28T10:22:30.969Z,30.61
2023-03-28T10:23:30.949Z,30.30
2023-03-28T10:24:30.933Z,30.44
2023-03-28T10:25:30.927Z,30.14
2023-03-28T10:26:30.939Z,30.61
2023-03-28T10:27:30.897Z,30.78
2023-03-28T10:28:30.880Z,30.06
2023-03-28T10:29:30.866Z,30.14
2023-03-28T10:30:30.847Z,30.22
2023-03-28T10:31:30.893Z,30.35
2023-03-28T10:32:30.960Z,30.42
2023-03-28T10:33:30.824Z,30.19
2023-03-28T10:34:30.841Z,30.07
2023-03-28T10:35:30.962Z,30.41
2023-03-28T10:36:30.791Z,30.38
2023-03-28T10:37:30.774Z,30.13
2023-03-28T10:38:30.773Z,30.32
2023-03-28T10:39:30.784Z,30.65
2023-03-28T10:40:30.853Z,30.32
2023-03-28T10:41:30.790Z,30.20
2023-03-28T10:42:30.794Z,30.26
2023-03-28T10:43:30.782Z,30.47
2023-03-28T10:44:30.779Z,30.44
2023-03-28T10:45:30.784Z,30.45
2023-03-28T10:46:30.820Z,30.39
2023-03-28T10:47:30.766Z,30.39
2023-03-28T10:48:30.739Z,30.39
2023-03-28T10:49:30.735Z,30.37
2023-03-28T10:50:30.725Z,30.51
2023-03-28T10:51:30.803Z,30.58
2023-03-28T10:52:30.710Z,30.44
2023-03-28T10:53:30.694Z,30.33
2023-03-28T10:54:30.683Z,30.20
2023-03-28T10:55:30.678Z,30.33
2023-03-28T10:56:30.683Z,30.39
2023-03-28T10:57:30.676Z,30.53
2023-03-28T10:58:30.664Z,30.20
2023-03-28T10:59:30.667Z,30.65
2023-03-28T11:00:30.656Z,30.37
2023-03-28T11:01:32.700Z,30.86
2023-03-28T11:02:30.808Z,30.75
2023-03-28T11:03:30.879Z,30.71
2023-03-28T11:04:30.783Z,30.92
2023-03-28T11:05:30.805Z,31.09
2023-03-28T11:06:30.797Z,31.43
2023-03-28T11:07:31.187Z,32.18
2023-03-28T11:08:30.845Z,31.44
2023-03-28T11:09:30.835Z,31.14
2023-03-28T11:10:30.875Z,30.63
2023-03-28T11:11:30.885Z,29.86
2023-03-28T11:12:33.879Z,29.44
2023-03-28T11:13:31.842Z,29.27
2023-03-28T11:14:30.792Z,28.94
2023-03-28T11:15:30.739Z,29.43
2023-03-28T11:16:30.746Z,29.53
2023-03-28T11:17:30.758Z,29.05
2023-03-28T11:18:30.582Z,29.13
2023-03-28T11:19:30.538Z,28.95
2023-03-28T11:20:30.495Z,28.91
2023-03-28T11:21:30.435Z,29.15
2023-03-28T11:22:30.381Z,29.00
2023-03-28T11:23:30.343Z,29.39
2023-03-28T11:24:30.286Z,30.18
2023-03-28T11:25:30.254Z,30.11
2023-03-28T11:26:30.202Z,29.97
2023-03-28T11:27:30.155Z,29.82
2023-03-28T11:28:30.120Z,29.41
2023-03-28T11:29:42.032Z,29.15
2023-03-28T11:30:30.057Z,29.07
2023-03-28T11:31:30.042Z,29.05
2023-03-28T11:32:29.979Z,29.10
2023-03-28T11:33:29.888Z,29.10
2023-03-28T11:34:29.831Z,29.62
2023-03-28T11:35:29.821Z,29.58
2023-03-28T11:36:29.728Z,29.77
2023-03-28T11:37:29.669Z,29.59
2023-03-28T11:38:29.628Z,29.35
2023-03-28T11:39:29.574Z,29.36
2023-03-28T11:40:29.524Z,29.32
2023-03-28T11:41:29.480Z,29.24
2023-03-28T11:42:29.418Z,29.33
2023-03-28T11:43:29.365Z,29.69
2023-03-28T11:44:29.339Z,29.98
2023-03-28T11:45:42.437Z,29.92
2023-03-28T11:46:30.287Z,30.57
2023-03-28T11:47:29.258Z,30.76
2023-03-28T11:48:29.185Z,30.43
2023-03-28T11:49:29.145Z,30.40
2023-03-28T11:50:29.093Z,30.33
2023-03-28T11:51:29.048Z,30.31
2023-03-28T11:52:28.994Z,30.10
2023-03-28T11:53:28.940Z,30.31
2023-03-28T11:54:28.918Z,30.97
2023-03-28T11:55:28.844Z,30.81
2023-03-28T11:56:28.808Z,30.62
2023-03-28T11:57:28.757Z,30.44
2023-03-28T11:58:28.699Z,30.11
2023-03-28T11:59:28.644Z,30.06
2023-03-28T12:00:33.582Z,30.58
2023-03-28T12:01:29.567Z,30.20
2023-03-28T12:02:28.720Z,29.95
2023-03-28T12:03:28.523Z,29.86
2023-03-28T12:04:28.414Z,29.76
2023-03-28T12:05:28.353Z,29.67
2023-03-28T12:06:28.302Z,29.67
2023-03-28T12:07:28.250Z,30.19
2023-03-28T12:08:28.197Z,30.10
2023-03-28T12:09:28.163Z,30.04
2023-03-28T12:10:28.103Z,29.78
2023-03-28T12:11:28.120Z,29.62
2023-03-28T12:12:28.020Z,29.55
2023-03-28T12:13:27.973Z,29.49
2023-03-28T12:14:27.907Z,29.49
2023-03-28T12:15:27.868Z,29.47
2023-03-28T12:16:27.859Z,29.49
2023-03-28T12:17:27.806Z,29.47
2023-03-28T12:18:28.555Z,29.49
2023-03-28T12:19:27.760Z,29.53
2023-03-28T12:20:27.738Z,29.55
2023-03-28T12:21:27.725Z,29.55
2023-03-28T12:22:27.706Z,29.53
2023-03-28T12:23:27.694Z,29.56
2023-03-28T12:24:27.678Z,29.83
2023-03-28T12:25:27.671Z,29.66
2023-03-28T12:26:27.659Z,29.42
2023-03-28T12:27:27.642Z,29.50
2023-03-28T12:28:27.628Z,30.25
2023-03-28T12:29:27.615Z,30.32
2023-03-28T12:30:27.598Z,30.00
2023-03-28T12:31:27.626Z,29.84
2023-03-28T12:32:27.637Z,29.78
2023-03-28T12:33:27.537Z,29.91
2023-03-28T12:34:27.518Z,29.75
2023-03-28T12:35:27.500Z,29.52
2023-03-28T12:36:27.489Z,29.45
2023-03-28T12:37:27.468Z,29.40
2023-03-28T12:38:27.452Z,29.60
2023-03-28T12:39:27.439Z,29.41
2023-03-28T12:40:27.425Z,29.40
2023-03-28T12:41:27.406Z,29.34
2023-03-28T12:42:27.387Z,29.86
2023-03-28T12:43:27.382Z,30.06
2023-03-28T12:44:27.377Z,29.81
2023-03-28T12:45:27.350Z,29.91
2023-03-28T12:46:27.381Z,29.89
2023-03-28T12:47:27.370Z,29.77
2023-03-28T12:48:27.315Z,30.50
2023-03-28T12:49:27.295Z,29.98
2023-03-28T12:50:27.282Z,30.08
2023-03-28T12:51:27.282Z,29.86
2023-03-28T12:52:27.260Z,30.19
2023-03-28T12:53:27.237Z,30.11
2023-03-28T12:54:27.226Z,29.86
2023-03-28T12:55:27.201Z,30.00
2023-03-28T12:56:27.219Z,30.51
2023-03-28T12:57:36.194Z,30.09